Terminal Aerodrome Forecast
Issued by NWS

Home | Current Version | Previous Version | Graphics & Text | Print | Product List | Glossary On
Versions: 1 2 3 4 5 6 7 8 9 10 11 12 13 14 15 16
999
FTUS43 KIWX 221403 AAA
TAFSBN
TAF AMD
KSBN 221403Z 2214/2312 VRB03KT P6SM SCT025 OVC070
     FM221700 27008KT P6SM SCT035 BKN150
     FM230000 31006KT P6SM SCT040 BKN200=

USA.gov is the U.S. government's official web portal to all federal, state and local government web resources and services.